Time;durP1;ratioP1;P1;durP2;ratioP2;P2;SDS_P1;SDS_P2;PMS_P1;PMS_P2;Temp;Humidity;BMP_temperature;BMP_pressure;BME280_temperature;BME280_humidity;BME280_pressure;Samples;Min_cycle;Max_cycle;Signal;HPM_P1;HPM_P2
2022/03/31 00:01:03;;;;;;;21.70;9.93;;;;;;;18.02;62.59;99972.00;5095716;28;20505;-73
2022/03/31 00:03:48;;;;;;;21.50;9.93;;;;;;;17.99;63.06;99972.19;5095128;28;20039;-72
2022/03/31 00:06:34;;;;;;;19.50;9.73;;;;;;;18.07;62.79;99968.16;5095656;28;20067;-72
2022/03/31 00:09:20;;;;;;;15.05;8.65;;;;;;;18.23;62.61;99966.28;5095049;28;20031;-72
2022/03/31 00:12:07;;;;;;;19.63;9.02;;;;;;;18.15;62.95;99967.66;5095275;28;20035;-72
2022/03/31 00:14:53;;;;;;;18.77;9.55;;;;;;;18.11;63.29;99961.72;5080024;28;20115;-73
2022/03/31 00:17:38;;;;;;;22.98;9.23;;;;;;;18.02;64.26;99966.72;5093711;28;20024;-72
2022/03/31 00:20:25;;;;;;;17.83;8.93;;;;;;;18.03;63.57;99952.50;5081512;28;20472;-73
2022/03/31 00:23:11;;;;;;;17.75;8.45;;;;;;;18.01;63.95;99952.59;5094826;28;20028;-72
2022/03/31 00:25:57;;;;;;;17.73;8.82;;;;;;;17.82;65.28;99957.28;5080656;28;20020;-72
2022/03/31 00:28:42;;;;;;;15.85;8.40;;;;;;;18.04;64.44;99960.38;5095455;28;20124;-73
2022/03/31 00:31:28;;;;;;;16.42;8.35;;;;;;;18.00;65.12;99950.88;5094895;28;20405;-73
2022/03/31 00:34:14;;;;;;;17.00;8.02;;;;;;;17.82;65.48;99957.28;5094398;28;20410;-72
2022/03/31 00:37:00;;;;;;;22.98;8.93;;;;;;;17.80;65.98;99966.28;5094666;28;20422;-73
2022/03/31 00:39:48;;;;;;;16.95;8.50;;;;;;;17.56;67.92;99959.75;5095024;28;20038;-73
2022/03/31 00:42:42;;;;;;;15.85;8.05;;;;;;;17.90;66.07;99954.19;5093231;28;20059;-72
2022/03/31 00:45:34;;;;;;;19.33;8.13;;;;;;;17.62;66.99;99947.00;5094728;28;20082;-73
2022/03/31 00:48:20;;;;;;;13.13;7.43;;;;;;;17.58;67.25;99940.19;5095245;28;20399;-72
2022/03/31 00:51:06;;;;;;;18.00;8.02;;;;;;;17.72;66.42;99942.88;5094571;28;20030;-72
2022/03/31 00:53:52;;;;;;;21.10;8.30;;;;;;;17.61;66.68;99928.56;5094656;28;20024;-72
2022/03/31 00:56:37;;;;;;;15.25;7.72;;;;;;;17.57;66.64;99932.31;5094760;28;20077;-72
2022/03/31 00:59:24;;;;;;;15.63;7.80;;;;;;;17.79;64.96;99932.75;5094020;28;20559;-72
2022/03/31 01:02:12;;;;;;;15.23;8.20;;;;;;;18.02;64.14;99941.06;5094707;28;20364;-73
2022/03/31 01:05:00;;;;;;;21.60;8.05;;;;;;;17.72;64.72;99929.63;5094548;28;20020;-72
2022/03/31 01:07:46;;;;;;;14.88;7.75;;;;;;;17.32;66.42;99924.06;5095212;28;20020;-72
2022/03/31 01:10:32;;;;;;;17.10;7.70;;;;;;;17.22;66.98;99923.72;5093209;28;20028;-73
2022/03/31 01:13:18;;;;;;;14.93;7.75;;;;;;;17.43;67.01;99914.59;5080191;28;20036;-72
2022/03/31 01:16:04;;;;;;;18.27;8.38;;;;;;;17.63;66.03;99916.91;5093524;28;20032;-72
2022/03/31 01:18:53;;;;;;;20.05;8.05;;;;;;;17.65;65.03;99917.66;5093590;28;20035;-72
2022/03/31 01:21:42;;;;;;;16.65;7.78;;;;;;;16.96;68.36;99918.22;5094614;28;20039;-73
2022/03/31 01:24:28;;;;;;;16.75;7.93;;;;;;;17.20;66.71;99911.53;5094461;28;20031;-73
2022/03/31 01:27:14;;;;;;;18.55;7.65;;;;;;;17.41;65.60;99911.16;5080513;28;20427;-72
2022/03/31 01:30:00;;;;;;;15.05;7.80;;;;;;;17.01;67.29;99910.84;5095745;28;20368;-73
2022/03/31 01:32:46;;;;;;;18.38;8.25;;;;;;;16.81;69.34;99916.41;5098471;28;20458;-73
2022/03/31 01:35:32;;;;;;;17.08;7.68;;;;;;;16.95;68.45;99914.69;5098571;28;20452;-73
2022/03/31 01:38:18;;;;;;;15.60;7.57;;;;;;;16.72;69.25;99908.97;5098362;28;20463;-71
2022/03/31 01:41:04;;;;;;;17.95;7.75;;;;;;;16.94;68.16;99899.78;5083710;28;20089;-72
2022/03/31 01:43:51;;;;;;;16.92;7.43;;;;;;;16.64;69.92;99905.91;5094681;28;20027;-72
2022/03/31 01:46:37;;;;;;;16.58;7.30;;;;;;;16.63;70.67;99906.84;5100834;28;20034;-73
2022/03/31 01:49:23;;;;;;;20.73;8.15;;;;;;;16.76;70.16;99899.94;5098165;28;20031;-72
2022/03/31 01:52:08;;;;;;;16.08;7.80;;;;;;;16.98;68.74;99895.16;5097648;28;20024;-72
2022/03/31 01:54:54;;;;;;;14.35;7.63;;;;;;;16.75;69.74;99890.28;5097853;28;20036;-73
2022/03/31 01:57:40;;;;;;;24.13;8.48;;;;;;;16.75;70.38;99884.97;5097669;28;20114;-72
2022/03/31 02:00:26;;;;;;;19.95;8.02;;;;;;;16.83;69.34;99886.28;5098137;28;20041;-72
2022/03/31 02:03:11;;;;;;;17.30;7.47;;;;;;;16.98;68.46;99884.56;5097800;28;20016;-73
2022/03/31 02:05:57;;;;;;;17.27;7.90;;;;;;;16.93;68.15;99876.03;5097327;28;20101;-73
2022/03/31 02:08:43;;;;;;;14.65;7.10;;;;;;;16.96;68.27;99875.88;5097785;28;20039;-71
2022/03/31 02:11:30;;;;;;;20.30;8.10;;;;;;;16.69;69.50;99878.28;5096093;28;20024;-72
2022/03/31 02:14:16;;;;;;;18.88;8.30;;;;;;;16.29;72.83;99889.28;5098347;28;20066;-72
2022/03/31 02:17:01;;;;;;;17.20;7.60;;;;;;;16.56;71.47;99889.59;5097942;28;20031;-73
2022/03/31 02:19:47;;;;;;;13.73;7.35;;;;;;;16.66;70.76;99891.66;5097987;28;20028;-72
2022/03/31 02:22:33;;;;;;;19.25;8.07;;;;;;;16.85;68.97;99887.06;5083604;28;20047;-73
2022/03/31 02:25:19;;;;;;;19.45;8.20;;;;;;;16.86;68.45;99896.69;5097895;28;20047;-72
2022/03/31 02:28:05;;;;;;;19.00;8.57;;;;;;;17.02;67.96;99892.25;5097181;28;20101;-72
2022/03/31 02:30:51;;;;;;;18.30;7.68;;;;;;;16.81;68.82;99892.59;5097476;28;20024;-72
2022/03/31 02:33:36;;;;;;;14.50;7.57;;;;;;;16.73;69.36;99881.59;5097492;28;20021;-72
2022/03/31 02:36:23;;;;;;;18.65;7.35;;;;;;;16.82;68.88;99873.13;5083694;28;20020;-72
2022/03/31 02:39:09;;;;;;;16.38;7.57;;;;;;;16.78;68.76;99876.88;5098981;28;20028;-74
2022/03/31 02:41:57;;;;;;;18.38;8.10;;;;;;;16.78;68.80;99877.75;5100412;28;20103;-73
2022/03/31 02:44:44;;;;;;;14.50;7.53;;;;;;;16.52;69.83;99886.25;5084359;28;20020;-72
2022/03/31 02:47:30;;;;;;;16.20;7.20;;;;;;;16.64;69.55;99896.16;5101275;28;20024;-73
2022/03/31 02:50:17;;;;;;;17.95;7.90;;;;;;;16.74;68.68;99891.22;5084552;28;20360;-75
2022/03/31 02:56:07;;;;;;;17.08;7.95;;;;;;;16.92;68.05;99898.16;5099812;28;20055;-74
2022/03/31 02:58:53;;;;;;;16.23;7.50;;;;;;;16.79;68.29;99894.47;5097553;28;20028;-73
2022/03/31 03:01:39;;;;;;;14.85;7.80;;;;;;;16.81;68.58;99885.53;5096501;28;20030;-73
2022/03/31 03:04:25;;;;;;;18.23;8.02;;;;;;;16.95;67.98;99885.59;5097384;28;20095;-73
2022/03/31 03:07:10;;;;;;;16.38;7.32;;;;;;;16.81;68.55;99877.59;5097102;28;20028;-74
2022/03/31 03:09:56;;;;;;;14.93;8.35;;;;;;;16.86;67.94;99872.88;5098269;28;20444;-75
2022/03/31 03:12:42;;;;;;;18.48;8.82;;;;;;;16.86;68.03;99880.81;5097894;28;20496;-71
2022/03/31 03:15:28;;;;;;;21.77;8.77;;;;;;;16.91;67.52;99869.97;5098956;28;20187;-74
2022/03/31 03:18:16;;;;;;;13.07;8.10;;;;;;;16.80;67.78;99867.09;5098168;28;20035;-72
2022/03/31 03:21:04;;;;;;;22.25;9.07;;;;;;;16.74;68.68;99854.19;5097922;28;20032;-72
2022/03/31 03:23:50;;;;;;;17.77;8.15;;;;;;;16.77;68.29;99859.31;5098724;28;20436;-73
2022/03/31 03:26:36;;;;;;;18.00;8.60;;;;;;;16.59;69.54;99861.19;5100351;28;20483;-73
2022/03/31 03:29:22;;;;;;;18.33;8.65;;;;;;;16.75;68.82;99866.47;5098673;28;20136;-72
2022/03/31 03:32:08;;;;;;;16.80;8.23;;;;;;;16.35;70.76;99873.06;5098960;28;20406;-70
2022/03/31 03:34:54;;;;;;;16.95;7.90;;;;;;;16.83;68.71;99872.19;5098447;28;20108;-72
2022/03/31 03:37:41;;;;;;;19.88;8.77;;;;;;;16.61;69.64;99861.97;5083456;28;20419;-75
2022/03/31 03:40:29;;;;;;;17.27;8.30;;;;;;;16.85;67.88;99860.59;5097996;28;20024;-72
2022/03/31 03:43:15;;;;;;;16.95;8.23;;;;;;;16.81;67.68;99864.34;5082592;28;20034;-73
2022/03/31 03:46:01;;;;;;;18.85;8.50;;;;;;;16.93;67.21;99861.03;5097173;28;20089;-72
2022/03/31 03:48:46;;;;;;;19.98;8.48;;;;;;;16.52;69.55;99864.25;5097188;28;20448;-75
2022/03/31 03:51:32;;;;;;;22.73;8.50;;;;;;;16.60;69.58;99857.59;5096323;28;20032;-72
2022/03/31 03:54:18;;;;;;;20.05;8.55;;;;;;;16.78;68.55;99859.22;5094257;28;20043;-72
2022/03/31 03:57:04;;;;;;;17.38;8.27;;;;;;;16.76;68.32;99852.31;5096883;28;20032;-72
2022/03/31 03:59:50;;;;;;;18.73;9.15;;;;;;;16.24;71.50;99853.47;5095429;28;20067;-75
2022/03/31 04:02:39;;;;;;;26.25;8.85;;;;;;;16.35;70.43;99859.03;5096117;28;20016;-72
2022/03/31 04:05:25;;;;;;;23.30;8.95;;;;;;;16.47;70.63;99847.81;5094344;28;20024;-72
2022/03/31 04:08:11;;;;;;;20.48;8.60;;;;;;;16.54;70.05;99854.44;5095942;28;20028;-73
2022/03/31 04:10:57;;;;;;;17.55;8.50;;;;;;;16.89;67.59;99854.19;5095480;28;20016;-73
2022/03/31 04:13:43;;;;;;;21.42;8.57;;;;;;;16.64;68.94;99851.19;5095615;28;20040;-73
2022/03/31 04:16:29;;;;;;;20.63;9.13;;;;;;;16.36;69.72;99856.28;5094435;28;20028;-73
2022/03/31 04:19:19;;;;;;;16.70;8.52;;;;;;;16.60;69.26;99852.31;5095979;28;20042;-75
2022/03/31 04:22:05;;;;;;;17.05;7.80;;;;;;;16.57;67.20;99843.72;5096512;28;20173;-73
2022/03/31 04:24:54;;;;;;;17.77;7.45;;;;;;;16.79;66.37;99837.13;5095561;28;20360;-73
2022/03/31 04:27:40;;;;;;;18.80;8.00;;;;;;;16.79;65.50;99839.75;5095066;28;20093;-72
2022/03/31 04:30:26;;;;;;;14.70;8.35;;;;;;;16.89;65.80;99837.47;5095156;28;20122;-72
2022/03/31 04:33:12;;;;;;;19.98;7.63;;;;;;;16.92;64.32;99840.78;5095678;28;20112;-73
2022/03/31 04:35:58;;;;;;;25.67;8.45;;;;;;;17.07;64.44;99837.25;5081436;28;20133;-73
2022/03/31 04:38:45;;;;;;;17.48;7.35;;;;;;;16.97;63.74;99837.88;5082287;28;20063;-72
2022/03/31 04:41:31;;;;;;;22.13;7.93;;;;;;;17.21;63.65;99836.47;5094550;28;20066;-73
2022/03/31 04:44:17;;;;;;;18.70;7.43;;;;;;;17.15;63.12;99834.16;5093554;28;20090;-72
2022/03/31 04:47:07;;;;;;;19.45;6.97;;;;;;;17.01;62.59;99827.03;5094709;28;20039;-72
2022/03/31 04:49:52;;;;;;;18.98;7.68;;;;;;;16.90;63.26;99825.94;5095679;28;20052;-73
2022/03/31 04:52:39;;;;;;;24.50;7.50;;;;;;;17.24;62.21;99826.53;5094873;28;20125;-71
2022/03/31 04:55:25;;;;;;;21.25;7.68;;;;;;;17.24;61.47;99813.28;5093520;28;20106;-71
2022/03/31 04:58:11;;;;;;;19.42;7.47;;;;;;;17.54;60.66;99815.97;5080602;28;20028;-73
2022/03/31 05:00:57;;;;;;;16.55;7.32;;;;;;;17.60;60.16;99815.59;5079840;28;20040;-72
2022/03/31 05:03:43;;;;;;;21.48;7.60;;;;;;;17.39;59.78;99819.47;5093945;28;20085;-72
2022/03/31 05:06:29;;;;;;;17.05;6.57;;;;;;;17.29;59.98;99821.84;5092844;28;20020;-71
2022/03/31 05:09:15;;;;;;;18.45;7.63;;;;;;;17.30;61.00;99820.88;5094925;28;20028;-70
2022/03/31 05:12:01;;;;;;;17.05;7.47;;;;;;;17.71;59.82;99824.59;5093854;28;20444;-71
2022/03/31 05:14:48;;;;;;;23.45;7.28;;;;;;;18.00;59.34;99821.00;5094651;28;20121;-72
2022/03/31 05:17:35;;;;;;;18.88;8.45;;;;;;;17.81;59.89;99825.72;5094089;28;20439;-71
2022/03/31 05:20:22;;;;;;;22.58;8.05;;;;;;;17.86;59.42;99822.81;5092946;28;20365;-71
2022/03/31 05:23:07;;;;;;;23.83;9.10;;;;;;;18.11;58.48;99825.66;5094562;28;20024;-71
2022/03/31 05:25:53;;;;;;;25.60;10.18;;;;;;;17.81;59.03;99814.28;5094028;28;20032;-71
2022/03/31 05:28:39;;;;;;;22.50;8.00;;;;;;;18.03;58.79;99814.66;5094267;28;20101;-69
2022/03/31 05:31:25;;;;;;;20.80;7.22;;;;;;;18.01;57.86;99817.41;5094036;28;20052;-71
2022/03/31 05:34:11;;;;;;;23.80;8.18;;;;;;;18.46;56.92;99806.63;5092589;28;20452;-71
2022/03/31 05:36:56;;;;;;;20.60;7.82;;;;;;;18.24;57.01;99800.94;5079929;28;20034;-72
2022/03/31 05:39:42;;;;;;;16.42;7.50;;;;;;;18.48;56.30;99796.75;5095056;28;20035;-72
2022/03/31 05:42:28;;;;;;;20.75;7.30;;;;;;;18.45;55.78;99790.81;5093891;28;20016;-70
2022/03/31 05:45:15;;;;;;;15.98;6.97;;;;;;;18.07;56.06;99795.84;5095748;28;20025;-71
2022/03/31 05:48:00;;;;;;;17.23;6.57;;;;;;;18.41;55.42;99802.56;5101460;28;20024;-71
2022/03/31 05:50:46;;;;;;;20.48;6.72;;;;;;;18.20;55.86;99806.50;5094772;28;20024;-72
2022/03/31 05:53:32;;;;;;;19.65;7.18;;;;;;;18.15;56.13;99808.59;5093237;28;20028;-73
2022/03/31 05:56:19;;;;;;;27.67;6.90;;;;;;;18.49;55.49;99798.44;5093897;28;20028;-72
2022/03/31 05:59:05;;;;;;;20.27;7.10;;;;;;;18.76;54.54;99793.16;5094259;28;20027;-72
2022/03/31 06:01:51;;;;;;;19.63;7.43;;;;;;;18.90;54.30;99798.41;5094232;28;20028;-72
2022/03/31 06:04:37;;;;;;;24.48;7.55;;;;;;;18.71;54.95;99793.47;5094700;28;20024;-71
2022/03/31 06:07:23;;;;;;;20.20;7.55;;;;;;;18.98;54.89;99794.28;5094798;28;20529;-72
2022/03/31 06:10:09;;;;;;;19.77;8.32;;;;;;;18.81;54.48;99791.91;5093440;28;20043;-74
2022/03/31 06:12:55;;;;;;;19.25;7.90;;;;;;;18.77;54.22;99795.72;5078618;28;20094;-71
2022/03/31 06:15:41;;;;;;;17.85;8.25;;;;;;;18.52;55.62;99802.69;5094347;28;20127;-71
2022/03/31 06:18:26;;;;;;;23.10;7.35;;;;;;;19.05;53.83;99797.41;5097136;28;20020;-71
2022/03/31 06:21:12;;;;;;;25.83;6.63;;;;;;;18.47;55.19;99802.16;5082661;28;20479;-71
2022/03/31 06:23:58;;;;;;;17.65;6.63;;;;;;;18.86;54.24;99811.03;5097083;28;20527;-72
2022/03/31 06:26:44;;;;;;;20.08;8.15;;;;;;;19.10;53.69;99817.38;5097204;28;20483;-72
2022/03/31 06:29:30;;;;;;;17.73;7.93;;;;;;;19.17;53.21;99823.16;5097514;28;20244;-71
2022/03/31 06:32:16;;;;;;;19.73;8.73;;;;;;;19.28;53.09;99822.47;5097674;28;20024;-71
2022/03/31 06:35:02;;;;;;;17.73;7.15;;;;;;;18.97;54.42;99823.63;5096911;28;20360;-71
2022/03/31 06:37:48;;;;;;;18.90;7.18;;;;;;;19.12;53.40;99827.91;5096944;28;20035;-71
2022/03/31 06:40:36;;;;;;;15.25;6.22;;;;;;;19.25;53.37;99820.84;5083193;28;20458;-73
2022/03/31 06:43:21;;;;;;;17.60;6.65;;;;;;;19.37;53.62;99821.84;5095432;28;20073;-72
2022/03/31 06:46:09;;;;;;;15.05;6.85;;;;;;;19.69;53.30;99817.84;5096159;28;20440;-73
2022/03/31 06:48:54;;;;;;;21.13;7.22;;;;;;;19.41;52.71;99832.13;5082271;28;20086;-73
2022/03/31 06:51:43;;;;;;;19.77;7.70;;;;;;;19.96;51.58;99827.41;5097379;28;20111;-74
2022/03/31 06:54:30;;;;;;;17.55;7.15;;;;;;;19.91;52.15;99828.69;5097916;27;20016;-72
2022/03/31 06:57:16;;;;;;;23.45;8.40;;;;;;;19.28;53.02;99849.03;5096600;28;20052;-72
2022/03/31 07:00:04;;;;;;;17.70;7.68;;;;;;;20.24;51.57;99851.16;5082671;28;20165;-71
2022/03/31 07:02:50;;;;;;;23.15;8.20;;;;;;;19.96;51.16;99861.97;5097116;28;20024;-72
2022/03/31 07:05:37;;;;;;;22.63;7.38;;;;;;;20.12;51.37;99861.78;5097042;28;20440;-73
2022/03/31 07:08:22;;;;;;;17.83;6.85;;;;;;;20.15;51.57;99874.88;5096989;28;20024;-71
2022/03/31 07:11:09;;;;;;;24.92;8.07;;;;;;;20.88;50.10;99874.84;5096961;28;20066;-70
2022/03/31 07:14:01;;;;;;;28.20;8.77;;;;;;;20.26;51.17;99878.50;5095826;28;20044;-72
2022/03/31 07:16:46;;;;;;;18.80;7.18;;;;;;;20.33;51.75;99873.59;5082040;28;20024;-71
2022/03/31 07:19:32;;;;;;;17.58;6.85;;;;;;;20.55;51.83;99882.59;5096076;28;20024;-72
2022/03/31 07:22:18;;;;;;;24.60;7.07;;;;;;;20.83;51.04;99885.00;5096954;28;20024;-72
2022/03/31 07:25:04;;;;;;;23.55;10.60;;;;;;;20.39;51.70;99876.69;5082265;28;20020;-71
2022/03/31 07:27:50;;;;;;;19.58;6.88;;;;;;;20.14;51.67;99881.16;5096008;28;20107;-72
2022/03/31 07:30:36;;;;;;;20.33;6.80;;;;;;;20.48;51.42;99868.03;5080854;28;20020;-73
2022/03/31 07:33:23;;;;;;;20.50;6.65;;;;;;;20.19;51.55;99868.38;5080804;28;20034;-72
2022/03/31 07:36:09;;;;;;;19.90;6.32;;;;;;;20.64;50.04;99868.63;5095512;28;20109;-72
2022/03/31 07:38:54;;;;;;;21.35;6.63;;;;;;;20.81;49.20;99872.75;5096680;28;20082;-73
2022/03/31 07:41:40;;;;;;;19.33;6.20;;;;;;;21.12;48.54;99866.91;5095438;28;20071;-72
2022/03/31 07:44:26;;;;;;;25.80;6.32;;;;;;;21.72;47.49;99871.19;5095428;28;20058;-74
2022/03/31 07:47:12;;;;;;;18.23;6.68;;;;;;;21.19;48.29;99863.69;5095573;28;20082;-72
2022/03/31 07:49:58;;;;;;;20.80;6.25;;;;;;;21.60;47.34;99871.22;5095589;28;20110;-73
2022/03/31 07:52:44;;;;;;;15.85;5.93;;;;;;;21.17;46.89;99878.06;5095239;28;20359;-73
2022/03/31 07:55:30;;;;;;;27.27;7.63;;;;;;;21.28;47.25;99883.44;5095268;28;20036;-73
2022/03/31 07:58:16;;;;;;;24.90;6.72;;;;;;;21.63;46.56;99895.84;5095313;28;20055;-72
2022/03/31 08:01:02;;;;;;;22.67;6.82;;;;;;;21.22;47.16;99890.06;5095291;28;20032;-73
2022/03/31 08:03:48;;;;;;;19.73;6.03;;;;;;;21.46;47.38;99888.25;5094380;28;20432;-73
2022/03/31 08:06:34;;;;;;;20.85;6.22;;;;;;;22.34;45.56;99885.00;5081749;28;20059;-73
2022/03/31 08:09:21;;;;;;;22.35;5.95;;;;;;;22.65;44.83;99874.44;5096041;28;20032;-72
2022/03/31 08:12:07;;;;;;;22.17;6.95;;;;;;;22.83;44.09;99885.47;5081082;28;20458;-69
2022/03/31 08:14:53;;;;;;;22.80;6.65;;;;;;;22.75;44.40;99871.91;5095744;28;20452;-72
2022/03/31 08:17:39;;;;;;;17.40;5.93;;;;;;;22.86;44.23;99875.38;5094951;28;20107;-72
2022/03/31 08:20:25;;;;;;;23.08;5.93;;;;;;;23.40;43.37;99867.38;5096028;28;20032;-72
2022/03/31 08:23:11;;;;;;;18.98;5.95;;;;;;;23.66;42.71;99865.19;5095289;28;20081;-73
2022/03/31 08:25:57;;;;;;;16.80;5.93;;;;;;;23.99;42.23;99860.50;5095305;28;20135;-72
2022/03/31 08:28:43;;;;;;;20.13;6.43;;;;;;;23.80;42.21;99851.47;5080215;28;20105;-71
2022/03/31 08:31:29;;;;;;;22.67;6.80;;;;;;;24.65;41.04;99848.44;5082149;28;20028;-72
2022/03/31 08:34:15;;;;;;;19.95;6.57;;;;;;;24.64;40.58;99850.28;5094667;28;20043;-71
2022/03/31 08:37:00;;;;;;;19.00;6.30;;;;;;;23.89;41.29;99858.69;5094595;28;20082;-71
2022/03/31 08:39:46;;;;;;;22.70;6.05;;;;;;;24.34;40.82;99860.13;5094530;28;20106;-73
2022/03/31 08:42:32;;;;;;;20.70;5.97;;;;;;;24.42;41.08;99852.25;5092821;28;20056;-72
2022/03/31 08:45:18;;;;;;;22.48;6.30;;;;;;;24.47;40.07;99848.19;5094970;28;20024;-71
2022/03/31 08:48:04;;;;;;;21.13;5.63;;;;;;;24.37;40.36;99843.78;5079167;28;20055;-71
2022/03/31 08:50:50;;;;;;;18.00;5.57;;;;;;;24.38;40.08;99854.38;5094380;28;20024;-72
2022/03/31 08:53:37;;;;;;;18.67;5.85;;;;;;;24.08;40.09;99846.34;5093831;28;20024;-71
2022/03/31 08:56:22;;;;;;;21.70;5.70;;;;;;;24.21;40.21;99846.09;5095827;28;20341;-70
2022/03/31 08:59:08;;;;;;;19.67;6.10;;;;;;;24.55;39.82;99839.50;5094810;28;20020;-70
2022/03/31 09:01:54;;;;;;;23.38;6.63;;;;;;;24.22;40.04;99834.44;5094444;28;20500;-71
2022/03/31 09:04:40;;;;;;;20.80;5.97;;;;;;;24.36;39.64;99826.88;5094323;28;20067;-72
2022/03/31 09:07:25;;;;;;;15.23;5.53;;;;;;;24.64;39.51;99826.16;5080051;28;20028;-71
2022/03/31 09:10:11;;;;;;;17.77;6.00;;;;;;;24.16;39.98;99829.59;5093674;28;20510;-72
2022/03/31 09:12:59;;;;;;;17.73;5.55;;;;;;;24.21;39.31;99830.91;5093294;28;20048;-72
2022/03/31 09:15:54;;;;;;;48.60;8.70;;;;;;;24.05;39.76;99825.19;5080334;28;20432;-72
2022/03/31 09:18:41;;;;;;;18.23;6.38;;;;;;;23.75;40.58;99829.63;5093862;28;20028;-71
2022/03/31 09:21:27;;;;;;;22.63;6.55;;;;;;;23.71;40.97;99830.88;5096150;28;20039;-72
2022/03/31 09:24:15;;;;;;;20.40;6.32;;;;;;;23.65;41.00;99839.38;5094079;28;20111;-74
2022/03/31 09:27:03;;;;;;;22.65;6.57;;;;;;;23.18;41.50;99824.63;5094420;28;20036;-74
2022/03/31 09:29:49;;;;;;;18.02;6.07;;;;;;;23.42;40.89;99822.63;5094462;28;20032;-71
2022/03/31 09:32:45;;;;;;;26.10;6.45;;;;;;;23.17;40.98;99818.47;5093218;28;20032;-71
2022/03/31 09:35:31;;;;;;;21.73;6.40;;;;;;;24.32;39.78;99804.03;5094834;28;20035;-71
2022/03/31 09:38:17;;;;;;;23.35;5.70;;;;;;;24.35;39.78;99806.41;5092612;28;20371;-70
2022/03/31 09:41:19;;;;;;;24.17;6.15;;;;;;;25.27;39.22;99820.31;5080438;28;20024;-70
2022/03/31 09:44:18;;;;;;;27.63;6.10;;;;;;;25.45;38.46;99807.09;5093982;28;20039;-71
2022/03/31 09:47:04;;;;;;;18.15;5.97;;;;;;;24.70;39.67;99808.66;5093916;28;20093;-71
2022/03/31 09:49:56;;;;;;;22.25;6.35;;;;;;;24.35;40.20;99794.88;5079633;28;20035;-70
2022/03/31 09:52:44;;;;;;;26.67;6.28;;;;;;;24.60;40.08;99805.09;5098225;28;20042;-74
2022/03/31 09:55:31;;;;;;;21.65;6.40;;;;;;;24.83;40.01;99814.66;5083330;28;20032;-75
2022/03/31 09:58:20;;;;;;;21.92;5.90;;;;;;;24.95;40.02;99806.31;5097908;28;20024;-70
2022/03/31 10:01:06;;;;;;;25.02;6.93;;;;;;;24.12;41.06;99809.44;5084991;28;20034;-71
2022/03/31 10:03:56;;;;;;;21.67;6.82;;;;;;;24.26;40.85;99801.06;5070947;28;20039;-71
2022/03/31 10:06:43;;;;;;;28.85;6.95;;;;;;;23.67;41.46;99792.84;5084740;28;20106;-71
2022/03/31 10:09:31;;;;;;;18.80;6.60;;;;;;;23.82;41.51;99801.38;5097728;28;20036;-71
2022/03/31 10:12:26;;;;;;;25.92;6.20;;;;;;;23.94;41.04;99809.19;5096531;28;20135;-71
2022/03/31 10:15:18;;;;;;;19.30;6.30;;;;;;;24.27;41.13;99800.06;5097878;28;20036;-71
2022/03/31 10:18:04;;;;;;;28.05;6.60;;;;;;;24.28;40.56;99791.03;5082535;28;20027;-71
2022/03/31 10:20:59;;;;;;;19.33;6.57;;;;;;;24.15;40.54;99787.75;5098027;28;20052;-73
2022/03/31 10:27:01;;;;;;;26.05;7.25;;;;;;;24.51;40.63;99771.94;5098117;28;20395;-73
2022/03/31 10:29:47;;;;;;;21.77;6.28;;;;;;;24.41;40.88;99762.19;5097424;28;20032;-74
2022/03/31 10:32:33;;;;;;;23.42;6.30;;;;;;;24.86;39.94;99766.13;5097819;28;20043;-74
2022/03/31 10:35:32;;;;;;;21.38;6.05;;;;;;;24.29;40.62;99769.50;5097193;28;20093;-76
2022/03/31 10:38:20;;;;;;;20.83;6.43;;;;;;;24.61;39.95;99763.97;5097631;28;20039;-73
2022/03/31 10:41:11;;;;;;;25.73;6.32;;;;;;;24.87;39.93;99770.50;5097344;28;20059;-73
2022/03/31 10:43:58;;;;;;;26.17;6.18;;;;;;;24.71;40.43;99768.34;5097427;28;20020;-74
2022/03/31 10:46:46;;;;;;;29.63;7.65;;;;;;;24.77;40.34;99781.22;5095043;28;20093;-73
2022/03/31 10:49:34;;;;;;;26.85;6.05;;;;;;;24.03;41.71;99772.78;5097283;28;20069;-75
2022/03/31 10:52:23;;;;;;;23.85;5.97;;;;;;;23.85;41.99;99764.50;5096891;28;20028;-75
2022/03/31 10:55:14;;;;;;;18.35;5.75;;;;;;;24.22;41.26;99743.41;5082865;28;20035;-73
2022/03/31 10:58:00;;;;;;;20.38;5.82;;;;;;;23.94;41.51;99739.63;5082526;28;20081;-73
2022/03/31 11:00:46;;;;;;;21.92;5.60;;;;;;;24.00;41.55;99741.78;5081449;28;20024;-74
2022/03/31 11:03:32;;;;;;;22.73;5.95;;;;;;;23.90;41.51;99729.31;5081431;28;20420;-77
2022/03/31 11:06:18;;;;;;;22.60;5.53;;;;;;;24.40;41.02;99729.22;5096020;28;20129;-73
2022/03/31 11:09:04;;;;;;;23.58;5.53;;;;;;;24.00;40.73;99724.88;5097388;28;20020;-73
2022/03/31 11:11:53;;;;;;;18.05;5.13;;;;;;;24.69;40.16;99727.47;5095928;28;20413;-74
2022/03/31 11:14:38;;;;;;;23.48;6.38;;;;;;;24.76;39.85;99715.22;5062201;28;20124;-72
2022/03/31 11:17:25;;;;;;;22.50;6.15;;;;;;;24.36;40.66;99713.56;5061507;28;20039;-74
2022/03/31 11:20:16;;;;;;;38.97;17.10;;;;;;;24.93;40.49;99716.34;5075277;28;20029;-73
2022/03/31 11:23:04;;;;;;;22.50;7.13;;;;;;;25.35;39.69;99707.03;5075386;28;20021;-72
2022/03/31 11:25:49;;;;;;;23.33;5.90;;;;;;;24.64;40.72;99720.84;5061688;28;20036;-73
2022/03/31 11:28:35;;;;;;;17.75;5.93;;;;;;;24.68;40.69;99723.13;5076138;28;20063;-73
2022/03/31 11:31:22;;;;;;;24.08;5.93;;;;;;;25.53;39.74;99697.22;5076139;28;20079;-73
2022/03/31 11:34:18;;;;;;;21.75;5.70;;;;;;;25.45;39.63;99708.69;5076013;28;20385;-73
2022/03/31 11:37:04;;;;;;;22.42;6.35;;;;;;;24.94;40.38;99718.00;5077525;28;20052;-72
2022/03/31 11:39:50;;;;;;;16.95;5.30;;;;;;;25.52;39.45;99719.69;5077144;28;20025;-74
2022/03/31 11:42:43;;;;;;;26.48;6.03;;;;;;;25.17;40.14;99709.56;5075955;28;20040;-73
2022/03/31 11:45:38;;;;;;;24.75;7.65;;;;;;;25.57;40.34;99706.69;5077065;28;20036;-72
2022/03/31 11:48:38;;;;;;;24.88;6.10;;;;;;;24.87;40.79;99706.19;5075885;28;20052;-73
2022/03/31 11:51:24;;;;;;;28.75;6.28;;;;;;;25.47;40.07;99695.97;5075094;28;20110;-72
2022/03/31 11:54:09;;;;;;;25.83;6.80;;;;;;;25.38;39.93;99679.91;5074574;28;20525;-72
2022/03/31 11:57:06;;;;;;;21.90;6.20;;;;;;;24.96;40.42;99689.25;5075370;28;20039;-73
2022/03/31 11:59:52;;;;;;;24.67;6.60;;;;;;;24.96;40.58;99686.56;5074921;28;20032;-74
2022/03/31 12:02:37;;;;;;;21.58;6.25;;;;;;;24.59;40.81;99672.16;5076219;28;20039;-74
2022/03/31 12:05:24;;;;;;;24.67;6.53;;;;;;;24.14;41.53;99676.34;5063713;28;20024;-76
2022/03/31 12:08:10;;;;;;;21.00;5.75;;;;;;;24.77;40.28;99659.78;5076646;28;20025;-79
2022/03/31 12:10:56;;;;;;;19.70;5.57;;;;;;;25.05;39.86;99653.56;5062382;28;20133;-80
2022/03/31 12:13:57;;;;;;;20.27;6.03;;;;;;;24.83;40.32;99652.03;5090293;28;20040;-79
2022/03/31 12:16:49;;;;;;;28.05;6.60;;;;;;;24.59;40.83;99640.84;5080845;28;20089;-80
2022/03/31 12:19:40;;;;;;;20.95;6.70;;;;;;;24.79;41.13;99637.22;5096462;28;20039;-80
2022/03/31 12:22:34;;;;;;;25.23;6.40;;;;;;;25.08;40.60;99639.88;5089781;28;20028;-76
2022/03/31 12:25:33;;;;;;;25.08;7.00;;;;;;;25.24;40.81;99664.25;5091489;28;20433;-78
2022/03/31 12:28:23;;;;;;;27.98;7.57;;;;;;;25.55;40.93;99661.22;5083203;28;20114;-78
2022/03/31 12:31:37;;;;;;;28.65;7.30;;;;;;;24.73;41.60;99669.94;5097506;28;20024;-76
2022/03/31 12:34:23;;;;;;;28.50;6.82;;;;;;;24.62;41.80;99659.38;5080863;28;20036;-76
2022/03/31 12:37:09;;;;;;;25.92;6.22;;;;;;;24.73;42.07;99667.28;5080841;28;20050;-78
2022/03/31 12:39:55;;;;;;;23.10;8.98;;;;;;;24.65;41.89;99669.81;5098350;28;20039;-78
2022/03/31 12:43:00;;;;;;;27.63;9.40;;;;;;;24.62;41.73;99675.44;5082650;28;20043;-78
2022/03/31 12:45:46;;;;;;;27.85;7.80;;;;;;;25.01;41.26;99660.19;5083832;28;20035;-78
2022/03/31 12:48:32;;;;;;;28.10;6.97;;;;;;;24.71;41.73;99661.19;5085048;28;20035;-79
2022/03/31 12:51:18;;;;;;;31.20;7.43;;;;;;;24.97;41.21;99658.78;5085890;28;20035;-77
2022/03/31 12:54:04;;;;;;;25.45;6.43;;;;;;;24.91;41.26;99651.31;5096742;28;20024;-80
2022/03/31 12:56:52;;;;;;;18.80;6.68;;;;;;;24.86;41.72;99651.75;5083476;28;20036;-79
2022/03/31 12:59:39;;;;;;;21.05;6.03;;;;;;;25.09;41.67;99641.56;5095787;28;20031;-78
2022/03/31 13:02:25;;;;;;;23.33;6.53;;;;;;;24.78;41.85;99648.06;5095691;28;20028;-78